Terminal Aerodrome Forecast
Issued by NWS North Platte, NE

Home | Current Version | Previous Version | Graphics & Text | Print | Product List | Glossary On
Versions: 1 2 3 4 5 6 7 8 9 10 11 12 13
000
FTUS43 KLBF 200430 AAA
TAFVTN
TAF AMD
KVTN 200430Z 2005/2024 20008KT 4SM BR SCT005
     FM200900 22005KT P6SM SKC
     FM201900 24006KT P6SM BKN200=

USA.gov is the U.S. government's official web portal to all federal, state and local government web resources and services.